Time;durP1;ratioP1;P1;durP2;ratioP2;P2;SDS_P1;SDS_P2;PMS_P1;PMS_P2;Temp;Humidity;BMP_temperature;BMP_pressure;BME280_temperature;BME280_humidity;BME280_pressure;Samples;Min_cycle;Max_cycle;Signal;HPM_P1;HPM_P2
2024/04/12 00:00:32;;;;;;;;;;;;;;;14.37;100.00;103158.28;5476980;26;1381;-60
2024/04/12 00:02:58;;;;;;;;;;;;;;;14.37;100.00;103150.19;5476830;26;1398;-60
2024/04/12 00:05:23;;;;;;;;;;;;;;;14.35;100.00;103149.56;5480450;26;1869;-60
2024/04/12 00:08:01;;;;;;;;;;;;;;;14.34;100.00;103148.72;5479178;26;1397;-60
2024/04/12 00:10:26;;;;;;;;;;;;;;;14.34;100.00;103151.44;5480473;26;1479;-60
2024/04/12 00:12:52;;;;;;;;;;;;;;;14.32;100.00;103148.06;5479116;26;1547;-60
2024/04/12 00:15:21;;;;;;;;;;;;;;;14.38;100.00;103143.78;5478473;26;1380;-60
2024/04/12 00:17:47;;;;;;;;;;;;;;;14.36;100.00;103146.69;5480429;26;1491;-60
2024/04/12 00:20:13;;;;;;;;;;;;;;;14.39;100.00;103140.06;5479709;26;1645;-60
2024/04/12 00:22:38;;;;;;;;;;;;;;;14.33;100.00;103128.16;5478403;26;1361;-61
2024/04/12 00:25:04;;;;;;;;;;;;;;;14.35;100.00;103122.56;5477785;26;1825;-60
2024/04/12 00:27:33;;;;;;;;;;;;;;;14.33;100.00;103130.84;5477458;26;1392;-60
2024/04/12 00:30:03;;;;;;;;;;;;;;;14.32;100.00;103133.75;5473441;26;1496;-60
2024/04/12 00:32:28;;;;;;;;;;;;;;;14.30;100.00;103131.22;5446432;26;1414;-61
2024/04/12 00:34:54;;;;;;;;;;;;;;;14.31;100.00;103126.66;5479770;26;1389;-60
2024/04/12 00:37:22;;;;;;;;;;;;;;;14.32;100.00;103128.34;5475966;26;1367;-60
2024/04/12 00:39:48;;;;;;;;;;;;;;;14.32;100.00;103122.94;5472678;26;1532;-60
2024/04/12 00:42:14;;;;;;;;;;;;;;;14.32;100.00;103121.06;5479428;26;1444;-60
2024/04/12 00:44:42;;;;;;;;;;;;;;;14.34;100.00;103115.50;5474442;26;1825;-60
2024/04/12 00:47:10;;;;;;;;;;;;;;;14.32;100.00;103101.34;5476760;26;1384;-61
2024/04/12 00:49:36;;;;;;;;;;;;;;;14.35;100.00;103111.78;5479750;26;1286;-60
2024/04/12 00:52:02;;;;;;;;;;;;;;;14.37;100.00;103104.31;5478088;26;1460;-60
2024/04/12 00:54:29;;;;;;;;;;;;;;;14.36;100.00;103105.38;5466110;26;1323;-60
2024/04/12 00:56:56;;;;;;;;;;;;;;;14.37;100.00;103101.63;5472071;26;1290;-60
2024/04/12 00:59:22;;;;;;;;;;;;;;;14.36;100.00;103099.97;5478922;26;1503;-60
2024/04/12 01:01:48;;;;;;;;;;;;;;;14.35;100.00;103099.09;5454519;26;1497;-60
2024/04/12 01:04:15;;;;;;;;;;;;;;;14.35;100.00;103096.41;5477582;26;1893;-60
2024/04/12 01:06:43;;;;;;;;;;;;;;;14.35;100.00;103088.31;5479991;26;1290;-60
2024/04/12 01:09:12;;;;;;;;;;;;;;;14.33;100.00;103084.16;5482269;26;1393;-60
2024/04/12 01:11:40;;;;;;;;;;;;;;;14.35;100.00;103082.09;5482459;26;1645;-60
2024/04/12 01:14:06;;;;;;;;;;;;;;;14.34;100.00;103085.81;5482814;26;1363;-60
2024/04/12 01:16:31;;;;;;;;;;;;;;;14.34;100.00;103091.19;5480973;26;1388;-59
2024/04/12 01:18:56;;;;;;;;;;;;;;;14.32;100.00;103085.16;5476213;26;1932;-61
2024/04/12 01:21:23;;;;;;;;;;;;;;;14.34;100.00;103089.34;5476731;26;1390;-60
2024/04/12 01:23:53;;;;;;;;;;;;;;;14.33;100.00;103087.66;5477956;26;1414;-60
2024/04/12 01:26:18;;;;;;;;;;;;;;;14.35;100.00;103084.78;5497284;25;1572;-61
2024/04/12 01:28:44;;;;;;;;;;;;;;;14.36;100.00;103076.50;5474433;26;1502;-61
2024/04/12 01:31:15;;;;;;;;;;;;;;;14.35;100.00;103065.88;5480482;26;1246;-61
2024/04/12 01:33:43;;;;;;;;;;;;;;;14.37;100.00;103063.81;5461688;26;1417;-60
2024/04/12 01:36:11;;;;;;;;;;;;;;;14.33;100.00;103067.94;5477748;26;1597;-61
2024/04/12 01:38:37;;;;;;;;;;;;;;;14.32;100.00;103061.69;5481501;26;1329;-60
2024/04/12 01:41:06;;;;;;;;;;;;;;;14.34;100.00;103066.91;5445594;26;1509;-60
2024/04/12 01:43:36;;;;;;;;;;;;;;;14.30;100.00;103054.84;5478916;26;1496;-61
2024/04/12 01:46:04;;;;;;;;;;;;;;;14.30;100.00;103044.88;5480721;26;1833;-60
2024/04/12 01:48:36;;;;;;;;;;;;;;;14.30;100.00;103035.94;5478074;26;1357;-60
2024/04/12 01:51:04;;;;;;;;;;;;;;;14.32;100.00;103033.88;5477921;26;1358;-61
2024/04/12 01:53:37;;;;;;;;;;;;;;;14.32;100.00;103032.00;5480977;26;1275;-61
2024/04/12 01:56:05;;;;;;;;;;;;;;;14.33;100.00;103036.38;5482412;26;1287;-61
2024/04/12 01:58:34;;;;;;;;;;;;;;;14.33;100.00;103035.56;5482137;26;1532;-60
2024/04/12 02:01:02;;;;;;;;;;;;;;;14.33;100.00;103035.56;5480717;26;1308;-61
2024/04/12 02:03:30;;;;;;;;;;;;;;;14.34;100.00;103040.78;5474437;26;1502;-60
2024/04/12 02:06:03;;;;;;;;;;;;;;;14.32;100.00;103037.41;5480561;26;1829;-60
2024/04/12 02:08:32;;;;;;;;;;;;;;;14.33;100.00;103040.97;5458083;26;1503;-61
2024/04/12 02:10:57;;;;;;;;;;;;;;;14.31;100.00;103043.00;5481619;26;1547;-60
2024/04/12 02:13:23;;;;;;;;;;;;;;;14.33;100.00;103046.38;5477783;26;1507;-61
2024/04/12 02:15:49;;;;;;;;;;;;;;;14.34;100.00;103045.31;5475225;26;1784;-60
2024/04/12 02:18:14;;;;;;;;;;;;;;;14.33;100.00;103062.56;5450330;26;1474;-60
2024/04/12 02:20:44;;;;;;;;;;;;;;;14.32;100.00;103048.19;5481146;26;1488;-60
2024/04/12 02:23:13;;;;;;;;;;;;;;;14.33;100.00;103047.19;5481762;26;1284;-60
2024/04/12 02:25:39;;;;;;;;;;;;;;;14.33;100.00;103051.75;5479001;26;1860;-61
2024/04/12 02:28:11;;;;;;;;;;;;;;;14.31;100.00;103043.00;5478785;26;1430;-60
2024/04/12 02:30:53;;;;;;;;;;;;;;;14.33;100.00;103051.75;5482063;26;1355;-61
2024/04/12 02:33:19;;;;;;;;;;;;;;;14.31;100.00;103045.69;5477702;26;1363;-63
2024/04/12 02:35:44;;;;;;;;;;;;;;;14.30;100.00;103044.03;5446358;26;1289;-61
2024/04/12 02:38:10;;;;;;;;;;;;;;;14.31;100.00;103053.78;5473844;26;1520;-60
2024/04/12 02:40:38;;;;;;;;;;;;;;;14.29;100.00;103061.25;5479062;26;1393;-61
2024/04/12 02:43:04;;;;;;;;;;;;;;;14.30;100.00;103060.22;5480235;26;1468;-60
2024/04/12 02:45:30;;;;;;;;;;;;;;;14.30;100.00;103050.25;5478539;26;1855;-60
2024/04/12 02:47:57;;;;;;;;;;;;;;;14.30;100.00;103058.38;5477408;26;1400;-60
2024/04/12 02:50:23;;;;;;;;;;;;;;;14.28;100.00;103046.94;5481653;26;1328;-60
2024/04/12 02:52:49;;;;;;;;;;;;;;;14.29;100.00;103047.75;5478815;26;1421;-60
2024/04/12 02:55:14;;;;;;;;;;;;;;;14.29;100.00;103055.84;5478761;26;1242;-60
2024/04/12 02:57:41;;;;;;;;;;;;;;;14.28;100.00;103057.72;5481287;26;1212;-60
2024/04/12 03:00:21;;;;;;;;;;;;;;;14.27;100.00;103060.59;5482358;26;1333;-60
2024/04/12 03:02:51;;;;;;;;;;;;;;;14.25;100.00;103061.63;5441270;26;1326;-61
2024/04/12 03:05:16;;;;;;;;;;;;;;;14.26;100.00;103059.75;5478526;26;1856;-60
2024/04/12 03:07:41;;;;;;;;;;;;;;;14.27;100.00;103060.59;5481476;26;1493;-60
2024/04/12 03:10:07;;;;;;;;;;;;;;;14.28;100.00;103065.81;5478465;26;1369;-61
2024/04/12 03:12:32;;;;;;;;;;;;;;;14.29;100.00;103059.38;5480087;26;1397;-60
2024/04/12 03:15:02;;;;;;;;;;;;;;;14.29;100.00;103066.66;5479044;26;1401;-60
2024/04/12 03:17:27;;;;;;;;;;;;;;;14.26;100.00;103046.25;5483766;26;1511;-60
2024/04/12 03:19:54;;;;;;;;;;;;;;;14.25;100.00;103042.75;5480800;26;1700;-59
2024/04/12 03:22:20;;;;;;;;;;;;;;;14.25;100.00;103044.56;5480898;26;1380;-60
2024/04/12 03:24:46;;;;;;;;;;;;;;;14.16;100.00;103057.34;5480351;26;1825;-58
2024/04/12 03:27:13;;;;;;;;;;;;;;;14.19;100.00;103054.28;5477604;26;1353;-59
2024/04/12 03:29:38;;;;;;;;;;;;;;;14.20;100.00;103057.81;5474538;26;1369;-60
2024/04/12 03:32:07;;;;;;;;;;;;;;;14.22;100.00;103053.06;5481019;26;1421;-60
2024/04/12 03:34:35;;;;;;;;;;;;;;;14.20;100.00;103050.53;5483460;26;1488;-59
2024/04/12 03:37:23;;;;;;;;;;;;;;;14.21;100.00;103046.81;5481567;26;1373;-61
2024/04/12 03:39:47;;;;;;;;;;;;;;;14.21;100.00;103052.22;5473713;26;1632;-60
2024/04/12 03:42:12;;;;;;;;;;;;;;;14.20;100.00;103033.53;5475777;26;1504;-60
2024/04/12 03:44:37;;;;;;;;;;;;;;;14.20;100.00;103028.94;5473847;26;1837;-60
2024/04/12 03:47:10;;;;;;;;;;;;;;;14.22;100.00;103029.63;5476895;26;1303;-60
2024/04/12 03:49:39;;;;;;;;;;;;;;;14.20;100.00;103026.25;5465184;26;1555;-60
2024/04/12 03:52:05;;;;;;;;;;;;;;;14.18;100.00;103020.22;5479483;26;1365;-60
2024/04/12 03:54:30;;;;;;;;;;;;;;;14.18;100.00;103025.63;5474306;26;1422;-59
2024/04/12 03:57:06;;;;;;;;;;;;;;;14.21;100.00;103024.41;5477202;26;1373;-60
2024/04/12 03:59:34;;;;;;;;;;;;;;;14.19;100.00;103021.03;5467310;26;1533;-59
2024/04/12 04:02:06;;;;;;;;;;;;;;;14.20;100.00;103025.44;5474592;26;1372;-59
2024/04/12 04:04:37;;;;;;;;;;;;;;;14.19;100.00;103032.69;5472697;26;1840;-60
2024/04/12 04:07:02;;;;;;;;;;;;;;;14.18;100.00;103035.59;5414983;26;1652;-60
2024/04/12 04:09:28;;;;;;;;;;;;;;;14.18;100.00;103020.22;5478706;26;1987;-60
2024/04/12 04:11:53;;;;;;;;;;;;;;;14.20;100.00;103022.72;5477887;26;1495;-59
2024/04/12 04:14:21;;;;;;;;;;;;;;;14.15;100.00;103017.91;5479840;26;1383;-60
2024/04/12 04:16:55;;;;;;;;;;;;;;;14.15;100.00;103012.50;5479851;26;1277;-60
2024/04/12 04:19:30;;;;;;;;;;;;;;;14.15;100.00;103008.97;5468699;26;1458;-60
2024/04/12 04:21:59;;;;;;;;;;;;;;;14.14;100.00;103008.13;5480122;26;1287;-60
2024/04/12 04:24:25;;;;;;;;;;;;;;;14.17;100.00;103010.44;5473461;26;1867;-60
2024/04/12 04:26:50;;;;;;;;;;;;;;;14.17;100.00;103007.75;5476130;26;1343;-60
2024/04/12 04:29:16;;;;;;;;;;;;;;;14.15;100.00;103008.97;5478239;26;1362;-60
2024/04/12 04:31:46;;;;;;;;;;;;;;;14.15;100.00;103006.28;5469227;26;1345;-60
2024/04/12 04:34:13;;;;;;;;;;;;;;;14.15;100.00;103000.88;5476692;26;1365;-60
2024/04/12 04:36:39;;;;;;;;;;;;;;;14.14;100.00;102994.63;5465636;26;1372;-60
2024/04/12 04:39:06;;;;;;;;;;;;;;;14.15;100.00;102993.63;5481039;26;1357;-60
2024/04/12 04:41:32;;;;;;;;;;;;;;;14.13;100.00;102989.44;5477605;26;1320;-60
2024/04/12 04:43:57;;;;;;;;;;;;;;;14.14;100.00;102989.25;5467393;26;1829;-60
2024/04/12 04:46:26;;;;;;;;;;;;;;;14.18;100.00;102995.94;5467781;26;1477;-60
2024/04/12 04:48:52;;;;;;;;;;;;;;;14.15;100.00;102987.41;5481536;26;1513;-59
2024/04/12 04:51:17;;;;;;;;;;;;;;;14.14;100.00;103000.03;5482569;26;1462;-60
2024/04/12 04:53:46;;;;;;;;;;;;;;;14.16;100.00;102998.00;5476334;26;1270;-60
2024/04/12 04:56:12;;;;;;;;;;;;;;;14.14;100.00;103000.03;5478990;26;1627;-60
2024/04/12 04:58:41;;;;;;;;;;;;;;;14.18;100.00;103006.72;5481584;26;1531;-60
2024/04/12 05:01:11;;;;;;;;;;;;;;;14.17;100.00;103010.44;5482193;26;1468;-60
2024/04/12 05:03:39;;;;;;;;;;;;;;;14.15;100.00;103007.09;5482299;26;1534;-60
2024/04/12 05:06:08;;;;;;;;;;;;;;;14.16;100.00;103014.19;5482364;26;1855;-60
2024/04/12 05:08:35;;;;;;;;;;;;;;;14.14;100.00;103013.53;5466555;26;1504;-60
2024/04/12 05:11:06;;;;;;;;;;;;;;;14.17;100.00;103017.72;5477439;26;1346;-60
2024/04/12 05:13:37;;;;;;;;;;;;;;;14.14;100.00;103018.91;5471366;26;1539;-60
2024/04/12 05:16:09;;;;;;;;;;;;;;;14.15;100.00;103011.69;5480052;26;1290;-60
2024/04/12 05:18:36;;;;;;;;;;;;;;;14.15;100.00;103020.59;5483094;26;1471;-60
2024/04/12 05:21:03;;;;;;;;;;;;;;;14.14;100.00;103021.63;5479547;26;1654;-60
2024/04/12 05:23:28;;;;;;;;;;;;;;;14.15;100.00;103025.16;5474624;26;1298;-60
2024/04/12 05:25:54;;;;;;;;;;;;;;;14.14;100.00;103018.09;5477576;26;1861;-60
2024/04/12 05:28:19;;;;;;;;;;;;;;;14.17;100.00;103017.72;5477470;26;1598;-60
2024/04/12 05:30:45;;;;;;;;;;;;;;;14.14;100.00;103008.13;5481702;26;1349;-60
2024/04/12 05:33:11;;;;;;;;;;;;;;;14.14;100.00;103000.03;5469448;26;1542;-59
2024/04/12 05:35:37;;;;;;;;;;;;;;;14.14;100.00;102997.34;5481951;26;1384;-59
2024/04/12 05:38:09;;;;;;;;;;;;;;;14.15;100.00;103006.28;5453542;26;1446;-60
2024/04/12 05:40:40;;;;;;;;;;;;;;;14.15;100.00;103000.88;5482658;26;1466;-60
2024/04/12 05:43:13;;;;;;;;;;;;;;;14.14;100.00;103001.91;5481283;26;1337;-60
2024/04/12 05:45:39;;;;;;;;;;;;;;;14.16;100.00;103003.41;5481341;26;1861;-60
2024/04/12 05:48:12;;;;;;;;;;;;;;;14.18;100.00;103016.69;5477894;26;1872;-59
2024/04/12 05:50:39;;;;;;;;;;;;;;;14.18;100.00;103011.31;5480158;26;1248;-59
2024/04/12 05:53:05;;;;;;;;;;;;;;;14.20;100.00;103020.03;5473482;26;1404;-60
2024/04/12 05:55:31;;;;;;;;;;;;;;;14.21;100.00;103024.41;5478149;26;1294;-60
2024/04/12 05:58:00;;;;;;;;;;;;;;;14.20;100.00;103011.94;5480311;26;1336;-60
2024/04/12 06:00:25;;;;;;;;;;;;;;;14.21;100.00;103009.06;5465705;26;1432;-61
2024/04/12 06:02:50;;;;;;;;;;;;;;;14.23;100.00;103011.56;5479831;26;1488;-60
2024/04/12 06:05:18;;;;;;;;;;;;;;;14.25;100.00;103004.97;5482000;26;1857;-60
2024/04/12 06:07:47;;;;;;;;;;;;;;;14.25;100.00;103009.50;5482363;26;1278;-60
2024/04/12 06:10:13;;;;;;;;;;;;;;;14.24;100.00;103005.97;5479340;26;1320;-61
2024/04/12 06:12:40;;;;;;;;;;;;;;;14.27;100.00;103003.91;5483894;26;1293;-60
2024/04/12 06:15:08;;;;;;;;;;;;;;;14.27;100.00;103006.59;5471940;26;1292;-60
2024/04/12 06:17:34;;;;;;;;;;;;;;;14.22;100.00;103005.34;5478624;26;1318;-61
2024/04/12 06:20:00;;;;;;;;;;;;;;;14.23;100.00;103001.59;5482978;26;1190;-59
2024/04/12 06:22:31;;;;;;;;;;;;;;;14.23;100.00;102995.38;5474272;26;1238;-61
2024/04/12 06:25:01;;;;;;;;;;;;;;;14.24;100.00;102994.34;5475011;26;1864;-60
2024/04/12 06:27:29;;;;;;;;;;;;;;;14.20;100.00;102999.28;5475553;26;1181;-60
2024/04/12 06:30:00;;;;;;;;;;;;;;;14.21;100.00;102994.72;5498951;25;1503;-61
2024/04/12 06:32:26;;;;;;;;;;;;;;;14.20;100.00;102991.19;5477851;26;1357;-60
2024/04/12 06:34:52;;;;;;;;;;;;;;;14.20;100.00;102991.19;5475617;26;1279;-60
2024/04/12 06:37:21;;;;;;;;;;;;;;;14.21;100.00;103000.97;5477112;26;1125;-60
2024/04/12 06:39:46;;;;;;;;;;;;;;;14.21;100.00;103003.66;5479856;26;2210;-61
2024/04/12 06:42:12;;;;;;;;;;;;;;;14.20;100.00;103007.38;5445060;26;1258;-60
2024/04/12 06:44:37;;;;;;;;;;;;;;;14.21;100.00;103013.63;5472118;26;1878;-61
2024/04/12 06:47:05;;;;;;;;;;;;;;;14.19;100.00;103007.56;5476684;26;1256;-60
2024/04/12 06:49:32;;;;;;;;;;;;;;;14.19;100.00;103010.25;5480719;26;1243;-61
2024/04/12 06:52:09;;;;;;;;;;;;;;;14.23;100.00;103014.25;5477708;26;1368;-61
2024/04/12 06:54:41;;;;;;;;;;;;;;;14.22;100.00;103016.13;5474015;26;1531;-60
2024/04/12 06:57:07;;;;;;;;;;;;;;;14.22;100.00;103015.28;5474657;26;1202;-60
2024/04/12 06:59:35;;;;;;;;;;;;;;;14.25;100.00;103025.69;5474269;26;1224;-61
2024/04/12 07:02:02;;;;;;;;;;;;;;;14.28;100.00;103019.09;5462818;26;1460;-61
2024/04/12 07:04:28;;;;;;;;;;;;;;;14.24;100.00;103016.75;5464373;26;1825;-61
2024/04/12 07:06:56;;;;;;;;;;;;;;;14.26;100.00;103011.19;5476429;26;1513;-61
2024/04/12 07:09:23;;;;;;;;;;;;;;;14.28;100.00;103013.69;5483333;26;1361;-61
2024/04/12 07:11:51;;;;;;;;;;;;;;;14.29;100.00;103016.19;5479689;26;1217;-60
2024/04/12 07:14:17;;;;;;;;;;;;;;;14.32;100.00;103007.72;5448836;26;1541;-61
2024/04/12 07:16:43;;;;;;;;;;;;;;;14.32;100.00;103007.72;5476256;26;1475;-60
2024/04/12 07:19:09;;;;;;;;;;;;;;;14.33;100.00;103008.56;5476311;26;1509;-60
2024/04/12 07:21:37;;;;;;;;;;;;;;;14.35;100.00;103011.91;5477754;26;1325;-60
2024/04/12 07:24:03;;;;;;;;;;;;;;;14.35;100.00;103010.03;5455625;26;1840;-60
2024/04/12 07:26:29;;;;;;;;;;;;;;;14.33;100.00;103011.28;5476732;26;1948;-61
2024/04/12 07:28:59;;;;;;;;;;;;;;;14.35;100.00;103014.59;5469723;26;1400;-60
2024/04/12 07:31:34;;;;;;;;;;;;;;;14.36;100.00;103021.69;5500324;26;1693;-61
2024/04/12 07:33:59;;;;;;;;;;;;;;;14.37;100.00;103016.09;5471277;26;1494;-61
2024/04/12 07:36:30;;;;;;;;;;;;;;;14.36;100.00;103027.91;5468363;26;1366;-61
2024/04/12 07:39:05;;;;;;;;;;;;;;;14.38;100.00;103028.56;5475697;26;1361;-60
2024/04/12 07:41:33;;;;;;;;;;;;;;;14.40;100.00;103023.81;5474330;26;1267;-60
2024/04/12 07:43:59;;;;;;;;;;;;;;;14.37;100.00;103016.09;5476280;26;1397;-60
2024/04/12 07:46:33;;;;;;;;;;;;;;;14.42;100.00;103015.53;5477895;26;1837;-60
2024/04/12 07:48:59;;;;;;;;;;;;;;;14.41;100.00;103012.00;5479118;26;1489;-58
2024/04/12 07:51:28;;;;;;;;;;;;;;;14.40;100.00;103015.72;5473593;26;1507;-60
2024/04/12 07:53:55;;;;;;;;;;;;;;;14.42;100.00;103018.22;5474595;26;1387;-60
2024/04/12 07:56:21;;;;;;;;;;;;;;;14.42;100.00;103021.75;5477479;26;1489;-59
2024/04/12 07:59:01;;;;;;;;;;;;;;;14.43;100.00;103014.50;5478023;26;1579;-59
2024/04/12 08:01:30;;;;;;;;;;;;;;;14.43;100.00;103028.84;5472497;26;1369;-59
2024/04/12 08:04:05;;;;;;;;;;;;;;;14.47;100.00;103023.88;5474528;26;1701;-59
2024/04/12 08:06:36;;;;;;;;;;;;;;;14.47;100.00;103021.19;5478270;26;1409;-60
2024/04/12 08:09:04;;;;;;;;;;;;;;;14.49;100.00;103018.28;5474485;26;1306;-60
2024/04/12 08:11:33;;;;;;;;;;;;;;;14.47;100.00;103028.44;5474583;26;1283;-60
2024/04/12 08:14:05;;;;;;;;;;;;;;;14.47;100.00;103020.34;5477401;26;1428;-61
2024/04/12 08:16:39;;;;;;;;;;;;;;;14.49;100.00;103027.25;5483563;26;1343;-60
2024/04/12 08:19:15;;;;;;;;;;;;;;;14.48;100.00;103036.38;5481673;26;1357;-60
2024/04/12 08:21:43;;;;;;;;;;;;;;;14.51;100.00;103032.47;5482908;26;1577;-60
2024/04/12 08:24:10;;;;;;;;;;;;;;;14.51;100.00;103030.59;5459872;26;1870;-60
2024/04/12 08:26:38;;;;;;;;;;;;;;;14.52;100.00;103043.06;5475826;26;1909;-60
2024/04/12 08:29:06;;;;;;;;;;;;;;;14.53;100.00;103038.50;5473472;26;1556;-59
2024/04/12 08:31:34;;;;;;;;;;;;;;;14.53;100.00;103036.66;5468739;26;1590;-60
2024/04/12 08:34:03;;;;;;;;;;;;;;;14.55;100.00;103033.75;5468187;26;1523;-60
2024/04/12 08:36:33;;;;;;;;;;;;;;;14.53;100.00;103039.34;5473205;26;1305;-60
2024/04/12 08:39:12;;;;;;;;;;;;;;;14.54;100.00;103053.66;5478865;26;1269;-60
2024/04/12 08:41:37;;;;;;;;;;;;;;;14.54;100.00;103043.69;5482480;26;2085;-60
2024/04/12 08:44:09;;;;;;;;;;;;;;;14.55;100.00;103050.78;5480887;26;1832;-60
2024/04/12 08:46:35;;;;;;;;;;;;;;;14.56;100.00;103041.66;5472205;26;1376;-60
2024/04/12 08:49:03;;;;;;;;;;;;;;;14.56;100.00;103044.38;5449138;26;1308;-62
2024/04/12 08:51:32;;;;;;;;;;;;;;;14.58;100.00;103047.69;5474895;26;1356;-61
2024/04/12 08:53:58;;;;;;;;;;;;;;;14.59;100.00;103049.38;5476056;26;1157;-61
2024/04/12 08:56:23;;;;;;;;;;;;;;;14.60;100.00;103047.50;5487467;26;1475;-61
2024/04/12 08:58:52;;;;;;;;;;;;;;;14.58;100.00;103045.00;5480088;26;1363;-61
2024/04/12 09:01:18;;;;;;;;;;;;;;;14.59;100.00;103043.97;5473416;26;1292;-62
2024/04/12 09:03:43;;;;;;;;;;;;;;;14.60;100.00;103037.53;5472470;26;1344;-60
2024/04/12 09:06:14;;;;;;;;;;;;;;;14.65;100.00;103038.88;5471058;26;1860;-62
2024/04/12 09:08:40;;;;;;;;;;;;;;;14.66;100.00;103037.84;5477662;26;1318;-60
2024/04/12 09:11:06;;;;;;;;;;;;;;;14.65;100.00;103031.59;5475648;26;1235;-59
2024/04/12 09:13:32;;;;;;;;;;;;;;;14.68;100.00;103030.38;5480895;26;1449;-60
2024/04/12 09:15:59;;;;;;;;;;;;;;;14.69;100.00;103032.06;5478786;26;1326;-61
2024/04/12 09:18:37;;;;;;;;;;;;;;;14.69;100.00;103032.88;5480084;26;1463;-60
2024/04/12 09:21:05;;;;;;;;;;;;;;;14.69;100.00;103024.78;5475077;26;1379;-60
2024/04/12 09:23:36;;;;;;;;;;;;;;;14.68;100.00;103030.38;5470038;26;1889;-60
2024/04/12 09:26:21;;;;;;;;;;;;;;;14.70;100.00;103021.06;5476234;26;1825;-60
2024/04/12 09:28:46;;;;;;;;;;;;;;;14.71;100.00;103028.16;5473290;26;2032;-60
2024/04/12 09:34:22;;;;;;;;;;;;;;;14.73;100.00;103028.78;5479093;26;1365;-60
2024/04/12 09:36:55;;;;;;;;;;;;;;;14.73;100.00;103020.69;5465951;26;1397;-60
2024/04/12 09:39:23;;;;;;;;;;;;;;;14.76;100.00;103033.81;5450019;26;1172;-60
2024/04/12 09:41:56;;;;;;;;;;;;;;;14.74;100.00;103035.88;5470521;26;1179;-59
2024/04/12 09:44:27;;;;;;;;;;;;;;;14.76;100.00;103032.97;5474288;26;1874;-61
2024/04/12 10:39:13;;;;;;;;;;;;;;;15.24;100.00;103008.88;5465759;26;1336;-60
2024/04/12 10:41:39;;;;;;;;;;;;;;;15.29;100.00;103001.03;5439176;26;1534;-60
2024/04/12 10:44:05;;;;;;;;;;;;;;;15.32;100.00;103002.53;5470127;26;1104;-61
2024/04/12 10:46:33;;;;;;;;;;;;;;;15.31;100.00;103003.53;5480038;26;1832;-60
2024/04/12 10:48:59;;;;;;;;;;;;;;;15.34;100.00;102996.91;5469652;26;1457;-60
2024/04/12 10:51:25;;;;;;;;;;;;;;;15.37;100.00;102996.53;5472177;26;1504;-61
2024/04/12 10:53:51;;;;;;;;;;;;;;;15.36;100.00;103003.78;5481746;26;1316;-61
2024/04/12 10:56:18;;;;;;;;;;;;;;;15.38;100.00;102992.78;5481712;26;1277;-61
2024/04/12 10:58:51;;;;;;;;;;;;;;;15.40;100.00;102988.84;5482194;26;1106;-61
2024/04/12 11:01:16;;;;;;;;;;;;;;;15.44;100.00;102994.72;5481359;26;1258;-61
2024/04/12 11:03:44;;;;;;;;;;;;;;;15.42;100.00;102996.75;5477814;26;1347;-61
2024/04/12 11:06:18;;;;;;;;;;;;;;;15.45;100.00;102988.25;5479073;26;1857;-61
2024/04/12 11:08:46;;;;;;;;;;;;;;;15.47;100.00;102978.09;5490928;26;1387;-61
2024/04/12 11:11:19;;;;;;;;;;;;;;;15.50;100.00;102974.13;5500893;26;1344;-61
2024/04/12 11:13:52;;;;;;;;;;;;;;;15.53;100.00;102976.44;5475742;26;1280;-61
2024/04/12 11:32:55;;;;;;;;;;;;;;;15.60;100.00;102969.22;5482066;26;1336;-61
2024/04/12 11:35:23;;;;;;;;;;;;;;;15.60;100.00;102964.66;5470443;26;1244;-61
2024/04/12 11:37:49;;;;;;;;;;;;;;;15.65;100.00;102967.59;5477196;26;1375;-61
2024/04/12 11:40:17;;;;;;;;;;;;;;;15.64;100.00;102965.09;5479667;26;1594;-63
2024/04/12 11:42:46;;;;;;;;;;;;;;;15.68;100.00;102968.22;5479684;26;1309;-61
2024/04/12 11:45:14;;;;;;;;;;;;;;;15.71;100.00;102959.72;5476906;26;1832;-61
2024/04/12 11:47:40;;;;;;;;;;;;;;;15.74;100.00;102951.22;5481099;26;1191;-61
2024/04/12 11:50:10;;;;;;;;;;;;;;;15.74;100.00;102949.31;5472744;26;1398;-61
2024/04/12 11:52:35;;;;;;;;;;;;;;;15.77;100.00;102951.63;5481467;26;1233;-62
2024/04/12 11:55:00;;;;;;;;;;;;;;;15.80;100.00;102945.03;5485784;26;1335;-61
2024/04/12 11:57:30;;;;;;;;;;;;;;;15.87;100.00;102945.91;5459934;26;1242;-61
2024/04/12 11:59:58;;;;;;;;;;;;;;;15.86;100.00;102940.69;5470436;26;1208;-61
2024/04/12 12:02:24;;;;;;;;;;;;;;;15.87;100.00;102939.63;5478737;26;1235;-60
2024/04/12 12:04:50;;;;;;;;;;;;;;;15.88;100.00;102947.53;5431723;26;1833;-62
2024/04/12 12:07:18;;;;;;;;;;;;;;;15.91;100.00;102943.63;5470127;26;1253;-61
2024/04/12 12:09:43;;;;;;;;;;;;;;;15.92;100.00;102934.47;5464704;26;2025;-62
2024/04/12 12:12:12;;;;;;;;;;;;;;;15.94;100.00;102938.66;5463733;26;1489;-62
2024/04/12 12:14:37;;;;;;;;;;;;;;;15.98;100.00;102948.00;5473798;26;1186;-61
2024/04/12 12:17:06;;;;;;;;;;;;;;;16.03;100.00;102943.88;5480491;26;1325;-61
2024/04/12 12:19:31;;;;;;;;;;;;;;;16.05;100.00;102933.66;5474021;26;2477;-62
2024/04/12 12:21:56;;;;;;;;;;;;;;;16.05;100.00;102934.53;5475956;26;1566;-62
2024/04/12 12:24:22;;;;;;;;;;;;;;;16.06;100.00;102940.75;5459735;26;1822;-62
2024/04/12 12:26:49;;;;;;;;;;;;;;;16.09;100.00;102933.09;5476675;26;1414;-61
2024/04/12 12:29:16;;;;;;;;;;;;;;;16.12;100.00;102929.13;5449232;26;1265;-62
2024/04/12 12:31:41;;;;;;;;;;;;;;;16.11;100.00;102927.47;5498297;26;1342;-61
2024/04/12 12:34:07;;;;;;;;;;;;;;;16.16;100.00;102939.31;5458334;26;1675;-62
2024/04/12 12:36:33;;;;;;;;;;;;;;;16.14;100.00;102932.47;5479012;26;1586;-62
2024/04/12 12:38:59;;;;;;;;;;;;;;;16.16;100.00;102924.97;5477390;26;1364;-61
2024/04/12 12:41:25;;;;;;;;;;;;;;;16.20;100.00;102931.66;5478383;26;1538;-62
2024/04/12 12:43:50;;;;;;;;;;;;;;;16.23;100.00;102928.53;5480373;26;1521;-62
2024/04/12 12:46:15;;;;;;;;;;;;;;;16.24;100.00;102924.78;5479660;26;1840;-62
2024/04/12 12:48:41;;;;;;;;;;;;;;;16.24;100.00;102923.94;5435241;26;1426;-62
2024/04/12 12:51:08;;;;;;;;;;;;;;;16.27;100.00;102918.97;5465343;26;1400;-61
2024/04/12 12:53:34;;;;;;;;;;;;;;;16.30;100.00;102918.56;5478914;26;1352;-62
2024/04/12 12:55:59;;;;;;;;;;;;;;;16.34;100.00;102919.81;5479715;26;1602;-62
2024/04/12 12:58:25;;;;;;;;;;;;;;;16.33;100.00;102909.19;5477860;26;1386;-62
2024/04/12 13:00:51;;;;;;;;;;;;;;;16.38;100.00;102911.28;5483130;26;1370;-62
2024/04/12 13:03:25;;;;;;;;;;;;;;;16.41;100.00;102897.34;5448495;26;1422;-61
2024/04/12 13:05:53;;;;;;;;;;;;;;;16.42;100.00;102912.53;5476372;26;1829;-62
2024/04/12 13:08:20;;;;;;;;;;;;;;;16.43;100.00;102895.25;5466043;26;1587;-62
2024/04/12 13:10:49;;;;;;;;;;;;;;;16.42;100.00;102896.28;5466793;26;1309;-62
2024/04/12 13:13:21;;;;;;;;;;;;;;;16.45;100.00;102890.44;5476505;26;1514;-62
2024/04/12 13:15:53;;;;;;;;;;;;;;;16.48;100.00;102885.47;5481275;26;1370;-62
2024/04/12 13:18:19;;;;;;;;;;;;;;;16.50;100.00;102877.97;5481394;26;1443;-62
2024/04/12 13:20:45;;;;;;;;;;;;;;;16.55;100.00;102869.22;5483526;26;1264;-62
2024/04/12 13:23:10;;;;;;;;;;;;;;;16.60;100.00;102872.16;5473934;26;1379;-62
2024/04/12 13:25:37;;;;;;;;;;;;;;;16.60;100.00;102865.91;5496164;26;1859;-62
2024/04/12 13:28:11;;;;;;;;;;;;;;;16.61;100.00;102863.00;5474430;26;1415;-61
2024/04/12 13:30:37;;;;;;;;;;;;;;;16.61;100.00;102864.84;5480171;26;1318;-61
2024/04/12 13:33:02;;;;;;;;;;;;;;;16.63;100.00;102866.31;5481211;26;1245;-62
2024/04/12 13:35:28;;;;;;;;;;;;;;;16.65;100.00;102863.41;5475390;26;1183;-61
2024/04/12 13:37:55;;;;;;;;;;;;;;;16.66;100.00;102860.47;5479797;26;1461;-61
2024/04/12 13:40:20;;;;;;;;;;;;;;;16.69;100.00;102854.63;5475096;26;1316;-61
2024/04/12 13:42:48;;;;;;;;;;;;;;;16.72;100.00;102863.41;5484310;26;1292;-62
2024/04/12 13:50:56;;;;;;;;;;;;;;;16.74;100.00;102855.91;5466213;26;1263;-62
2024/04/12 13:53:32;;;;;;;;;;;;;;;16.78;100.00;102849.84;5480409;26;1246;-62
2024/04/12 13:56:19;;;;;;;;;;;;;;;16.78;100.00;102841.72;5477655;26;1395;-62